Northern Light — V7WG4 — position and weather

sailwx.info

Track history (hours):
 
Tides and Currents Weather Stations Pressure Air Temp Water Temp Dewpoint Dewpoint Depression Visibility Wind Speed Wind Dir Waves Ship Positions

Northern Light

Last reported at 2018-Jul-09 22:43 UTC. Time now 2018-Jul-19 15:08 UTC.
Position N 26°27' W 015°33'.
Warning: this ship's position is 9 days out of date.

Length 183 m; draft 11.8 m.

Type: Tanker. MMSI: 538004293.

Date/timePositionNaut miles runAvg speedWind from/ knotsBaromVisibWave heightAir tempDewpointWater temp
2018-Jul-09 22:43N 26°27' W 015°33'3612.2
2018-Jul-09 19:47N 26°59' W 015°17'512.6
2018-Jul-09 19:23N 27°04' W 015°16'512.6
2018-Jul-09 18:58N 27°10' W 015°16'3712.5
2018-Jul-09 16:00N 27°47' W 015°14'612.2
2018-Jul-09 15:28N 27°53' W 015°14'612.4
2018-Jul-09 15:00N 27°59' W 015°15'612.5
2018-Jul-09 14:30N 28°04' W 015°18'4 8.0
2018-Jul-09 14:00N 28°08' W 015°20'5 9.8
2018-Jul-09 13:30N 28°12' W 015°17'612.5
2018-Jul-09 13:00N 28°16' W 015°12'713.2
2018-Jul-09 12:30N 28°21' W 015°07'713.3
2018-Jul-09 12:00N 28°28' W 015°05'713.4
2018-Jul-09 11:30N 28°34' W 015°03'713.1
2018-Jul-09 11:00N 28°40' W 015°01'713.0
2018-Jul-09 10:27N 28°47' W 014°58'612.6
2018-Jul-09 10:00N 28°53' W 014°56'612.4
2018-Jul-09 09:29N 28°59' W 014°55'612.7
2018-Jul-09 09:00N 29°05' W 014°53'612.5
2018-Jul-09 08:30N 29°11' W 014°51'611.6
2018-Jul-09 08:00N 29°16' W 014°49'1112.0
2018-Jul-09 07:04N 29°27' W 014°46'111.8
2018-Jul-09 07:00N 29°28' W 014°46'612.0
2018-Jul-09 06:30N 29°34' W 014°44'611.9
2018-Jul-09 06:00N 29°39' W 014°42'611.5
2018-Jul-09 05:30N 29°45' W 014°40'611.9
2018-Jul-09 04:59N 29°51' W 014°38'612.0
2018-Jul-09 04:30N 29°56' W 014°36'911.9
2018-Jul-09 03:44N 30°05' W 014°34'312.0
2018-Jul-09 03:30N 30°08' W 014°33'712.1
2018-Jul-09 02:57N 30°14' W 014°31'512.1
2018-Jul-09 02:30N 30°20' W 014°29'712.1
2018-Jul-09 01:56N 30°26' W 014°27'512.1
2018-Jul-09 01:30N 30°31' W 014°25'612.1
2018-Jul-09 00:59N 30°37' W 014°24'1411.9
2018-Jul-08 23:46N 30°51' W 014°19'512.1
2018-Jul-08 23:21N 30°56' W 014°17'412.2
2018-Jul-08 23:00N 31°00' W 014°16'612.3
2018-Jul-08 22:30N 31°06' W 014°14'712.2
2018-Jul-08 21:57N 31°13' W 014°12'2912.0
2018-Jul-08 19:30N 31°41' W 014°03'612.0
2018-Jul-08 19:00N 31°47' W 014°01'39012.3
2018-Jul-07 11:17N 38°03' W 011°56'  
2018-Jul-04 16:04N 49°43' W 003°40'112.7
2018-Jul-04 15:59N 49°44' W 003°39'912.6
2018-Jul-04 15:17N 49°48' W 003°27'312.4
2018-Jul-04 15:00N 49°50' W 003°22'712.2
2018-Jul-04 14:24N 49°54' W 003°12'511.5
2018-Jul-04 14:00N 49°56' W 003°06'611.3
2018-Jul-04 13:30N 49°59' W 002°58'610.9
2018-Jul-04 12:59N 50°01' W 002°50'510.6
2018-Jul-04 12:30N 50°02' W 002°43'510.3
2018-Jul-04 11:59N 50°03' W 002°35'5610.9
2018-Jul-04 06:54N 50°18' W 001°11'614.2
2018-Jul-04 06:30N 50°19' W 001°02'914.6
2018-Jul-04 05:54N 50°22' W 000°49'613.9
2018-Jul-04 05:28N 50°23' W 000°40'1213.4
2018-Jul-04 04:36N 50°26' W 000°22'112.8
2018-Jul-04 04:30N 50°27' W 000°20'912.6
2018-Jul-04 03:48N 50°29' W 000°07'1611.8
2018-Jul-04 02:27N 50°33' E 000°17'510.9
2018-Jul-04 02:00N 50°34' E 000°25'510.5
2018-Jul-04 01:30N 50°36' E 000°33'510.3
2018-Jul-04 01:00N 50°39' E 000°39'510.4
2018-Jul-04 00:30N 50°42' E 000°46'510.6
2018-Jul-04 00:00N 50°45' E 000°52'511.0
2018-Jul-03 23:30N 50°49' E 000°59'611.8
2018-Jul-03 23:00N 50°52' E 001°06'612.5
2018-Jul-03 22:30N 50°57' E 001°14'713.3
2018-Jul-03 22:00N 51°01' E 001°21'713.8
2018-Jul-03 21:30N 51°05' E 001°31'713.8
2018-Jul-03 21:01N 51°10' E 001°39'612.8
2018-Jul-03 20:30N 51°14' E 001°46'612.1
2018-Jul-03 20:00N 51°20' E 001°50'510.9
2018-Jul-03 19:30N 51°25' E 001°54'510.6
2018-Jul-03 19:01N 51°25' E 002°02'611.5
2018-Jul-03 18:31N 51°22' E 002°10'611.1
2018-Jul-03 18:01N 51°21' E 002°19'510.5
2018-Jul-03 17:31N 51°22' E 002°27'510.3
2018-Jul-03 17:01N 51°23' E 002°35'510.2
2018-Jul-03 16:31N 51°22' E 002°43'4 7.7
2018-Jul-03 16:00N 51°22' E 002°49'510.0
2018-Jul-03 15:30N 51°23' E 002°57'5 9.5
2018-Jul-03 15:01N 51°24' E 003°04'5 9.5
2018-Jul-03 14:30N 51°24' E 003°12'5 9.7
2018-Jul-03 14:01N 51°24' E 003°20'510.0
2018-Jul-03 13:31N 51°25' E 003°28'5 9.4
2018-Jul-03 13:01N 51°26' E 003°35'4 8.5
2018-Jul-03 12:31N 51°26' E 003°42'510.0
2018-Jul-03 12:01N 51°22' E 003°46'510.4
2018-Jul-03 11:31N 51°22' E 003°55'510.8
2018-Jul-03 11:01N 51°26' E 003°60'611.0
2018-Jul-03 10:30N 51°22' E 004°06'5 9.2
2018-Jul-03 10:01N 51°22' E 004°13'3 6.4
2018-Jul-03 09:30N 51°21' E 004°17'0 0.0
2018-Jul-03 09:00N 51°21' E 004°17'0 0.2
2018-Jul-03 08:30N 51°21' E 004°17'2 3.9
2018-Jul-03 08:00N 51°19' E 004°19'3 5.3
2018-Jul-03 07:30N 51°17' E 004°21'0 0.3
2018-Jul-03 06:56N 51°16' E 004°21'0 0.0
2018-Jul-03 06:29N 51°16' E 004°21'0 0.0
2018-Jul-03 05:59N 51°16' E 004°21'0 0.0
2018-Jul-03 05:29N 51°16' E 004°21'0 0.0
2018-Jul-03 04:59N 51°16' E 004°21'0 0.0
2018-Jul-03 04:29N 51°16' E 004°21'0 0.0
2018-Jul-03 03:59N 51°16' E 004°21'0 0.0
2018-Jul-03 03:26N 51°16' E 004°21'0 0.0
2018-Jul-03 02:59N 51°16' E 004°21'0 0.0
2018-Jul-03 02:29N 51°16' E 004°21'0 0.0
2018-Jul-03 01:59N 51°16' E 004°21'0 0.0
2018-Jul-03 01:29N 51°16' E 004°21'0 0.0
2018-Jul-03 00:59N 51°16' E 004°21'0 0.0
2018-Jul-03 00:29N 51°16' E 004°21'0 0.0
2018-Jul-02 23:59N 51°16' E 004°21'0 0.0
2018-Jul-02 23:29N 51°16' E 004°21'0 0.0
2018-Jul-02 22:59N 51°16' E 004°21'0 0.0
2018-Jul-02 22:29N 51°16' E 004°21'0 0.0
2018-Jul-02 21:50N 51°16' E 004°21'0 0.0
2018-Jul-02 21:29N 51°16' E 004°21'0 0.0
2018-Jul-02 20:50N 51°16' E 004°21'0 0.0
2018-Jul-02 20:29N 51°16' E 004°21'0 0.0
2018-Jul-02 19:59N 51°16' E 004°21'0 0.0
2018-Jul-02 19:29N 51°16' E 004°21'0 0.0
2018-Jul-02 18:59N 51°16' E 004°21'0 0.0
2018-Jul-02 18:29N 51°16' E 004°21'0 0.0
2018-Jul-02 17:56N 51°16' E 004°21'0 0.0
2018-Jul-02 17:26N 51°16' E 004°21'0 0.0
2018-Jul-02 16:56N 51°16' E 004°21'0 0.0
2018-Jul-02 16:26N 51°16' E 004°21'0 0.0
2018-Jul-02 15:59N 51°16' E 004°21'0 0.0
2018-Jul-02 15:29N 51°16' E 004°21'0 0.0
2018-Jul-02 14:59N 51°16' E 004°21'0 0.0
2018-Jul-02 14:26N 51°16' E 004°21'0 0.0
2018-Jul-02 13:59N 51°16' E 004°21'0 0.0
2018-Jul-02 13:26N 51°16' E 004°21'0 0.0
2018-Jul-02 12:59N 51°16' E 004°21'0 0.0
2018-Jul-02 12:29N 51°16' E 004°21'0 0.0
2018-Jul-02 11:56N 51°16' E 004°21'0 0.0
2018-Jul-02 11:26N 51°16' E 004°21'0 0.0
2018-Jul-02 10:56N 51°16' E 004°21'0 0.0
2018-Jul-02 10:20N 51°16' E 004°21'0 0.0
2018-Jul-02 09:50N 51°16' E 004°21'0 0.0
2018-Jul-02 09:23N 51°16' E 004°21'0 0.0
2018-Jul-02 08:59N 51°16' E 004°21'0 0.0
2018-Jul-02 08:26N 51°16' E 004°21'0 0.0
2018-Jul-02 07:56N 51°16' E 004°21'0 0.0
2018-Jul-02 07:29N 51°16' E 004°21'0 0.0
2018-Jul-02 06:59N 51°16' E 004°21'0 0.0
2018-Jul-02 06:29N 51°16' E 004°21'0 0.0
2018-Jul-02 05:59N 51°16' E 004°21'0 0.0
2018-Jul-02 05:29N 51°16' E 004°21'0 0.0
2018-Jul-02 04:59N 51°16' E 004°21'0 0.0
2018-Jul-02 04:29N 51°16' E 004°21'0 0.0
2018-Jul-02 03:56N 51°16' E 004°21'0 0.0
2018-Jul-02 03:26N 51°16' E 004°21'0 0.0
2018-Jul-02 02:59N 51°16' E 004°21'0 0.0
2018-Jul-02 02:26N 51°16' E 004°21'0 0.0
2018-Jul-02 01:59N 51°16' E 004°21'0 0.0
2018-Jul-02 01:26N 51°16' E 004°21'0 0.0
2018-Jul-02 00:59N 51°16' E 004°21'0 0.0
2018-Jul-02 00:26N 51°16' E 004°21'0 0.0
2018-Jul-01 23:59N 51°16' E 004°21'0 0.0
2018-Jul-01 23:29N 51°16' E 004°21'0 0.0
2018-Jul-01 22:59N 51°16' E 004°21'0 0.0
2018-Jul-01 22:29N 51°16' E 004°21'0 0.0
2018-Jul-01 21:59N 51°16' E 004°21'0 0.0
2018-Jul-01 21:29N 51°16' E 004°21'0 0.0
2018-Jul-01 20:59N 51°16' E 004°21'0 0.0
2018-Jul-01 20:23N 51°16' E 004°21'0 0.0
2018-Jul-01 19:59N 51°16' E 004°21'0 0.0
2018-Jul-01 19:29N 51°16' E 004°21'0 0.0
2018-Jul-01 18:56N 51°16' E 004°21'0 0.0
2018-Jul-01 18:29N 51°16' E 004°21'0 0.0
2018-Jul-01 17:56N 51°16' E 004°21'0 0.0
2018-Jul-01 17:29N 51°16' E 004°21'0 0.0
2018-Jul-01 16:59N 51°16' E 004°21'0 0.0
2018-Jul-01 16:29N 51°16' E 004°21'0 0.0
2018-Jul-01 15:59N 51°16' E 004°21'0 0.0
2018-Jul-01 15:29N 51°16' E 004°21'0 0.0
2018-Jul-01 14:56N 51°16' E 004°21'0 0.0
2018-Jul-01 14:26N 51°16' E 004°21'0 0.0
2018-Jul-01 13:59N 51°16' E 004°21'0 0.0
2018-Jul-01 13:23N 51°16' E 004°21'0 0.0
2018-Jul-01 12:59N 51°16' E 004°21'0 0.0
2018-Jul-01 12:29N 51°16' E 004°21'0 0.0
2018-Jul-01 11:50N 51°16' E 004°21'0 0.0
2018-Jul-01 11:29N 51°16' E 004°21'0 0.0
2018-Jul-01 10:56N 51°16' E 004°21'0 0.0
2018-Jul-01 10:23N 51°16' E 004°21'0 0.0
2018-Jul-01 09:50N 51°16' E 004°21'0 0.0
2018-Jul-01 09:29N 51°16' E 004°21'0 0.0
2018-Jul-01 08:56N 51°16' E 004°21'0 0.0
2018-Jul-01 08:23N 51°16' E 004°21'0 0.0
2018-Jul-01 07:59N 51°16' E 004°21'0 0.0
2018-Jul-01 07:29N 51°16' E 004°21'0 0.0
2018-Jul-01 06:56N 51°16' E 004°21'0 0.0
2018-Jul-01 06:29N 51°16' E 004°21'0 0.0
2018-Jul-01 05:56N 51°16' E 004°21'0 0.0
2018-Jul-01 05:29N 51°16' E 004°21'0 0.0
2018-Jul-01 04:56N 51°16' E 004°21'0 0.0
2018-Jul-01 04:26N 51°16' E 004°21'0 0.0
2018-Jul-01 03:59N 51°16' E 004°21'0 0.0
2018-Jul-01 03:26N 51°16' E 004°21'0 0.0
2018-Jul-01 02:59N 51°16' E 004°21'0 0.0
2018-Jul-01 02:23N 51°16' E 004°21'0 0.0
2018-Jul-01 01:59N 51°16' E 004°21'0 0.0
2018-Jul-01 01:26N 51°16' E 004°21'0 0.0
2018-Jul-01 00:59N 51°16' E 004°21'0 0.0
2018-Jul-01 00:26N 51°16' E 004°21'0 0.0
2018-Jun-30 23:59N 51°16' E 004°21'0 0.0
2018-Jun-30 23:29N 51°16' E 004°21'0 0.0
2018-Jun-30 22:59N 51°16' E 004°21'0 0.0
2018-Jun-30 22:23N 51°16' E 004°21'0 0.0
2018-Jun-30 21:56N 51°16' E 004°21'0 0.0
2018-Jun-30 21:29N 51°16' E 004°21'0 0.0
2018-Jun-30 20:59N 51°16' E 004°21'0 0.0
2018-Jun-30 20:26N 51°16' E 004°21'0 0.0
2018-Jun-30 19:59N 51°16' E 004°21'0 0.0
2018-Jun-30 19:29N 51°16' E 004°21'0 0.0
2018-Jun-30 18:59N 51°16' E 004°21'0 0.0
2018-Jun-30 18:29N 51°16' E 004°21'0 0.0
2018-Jun-30 17:59N 51°16' E 004°21'0 0.0
2018-Jun-30 17:29N 51°16' E 004°21'0 0.0
2018-Jun-30 16:59N 51°16' E 004°21'0 0.0
2018-Jun-30 16:29N 51°16' E 004°21'0 0.0
2018-Jun-30 15:59N 51°16' E 004°21'0 0.0
2018-Jun-30 15:26N 51°16' E 004°21'0 0.0
2018-Jun-30 14:59N 51°16' E 004°21'0 0.0
2018-Jun-30 14:29N 51°16' E 004°21'0 0.0
2018-Jun-30 13:56N 51°16' E 004°21'0 0.0
2018-Jun-30 13:29N 51°16' E 004°21'0 0.0
2018-Jun-30 12:59N 51°16' E 004°21'0 0.0
2018-Jun-30 12:29N 51°16' E 004°21'0 0.0
2018-Jun-30 11:59N 51°16' E 004°21'0 0.0
2018-Jun-30 11:29N 51°16' E 004°21'0 0.0
2018-Jun-30 10:59N 51°16' E 004°21'0 0.0
2018-Jun-30 10:29N 51°16' E 004°21'0 0.0
2018-Jun-30 09:56N 51°16' E 004°21'0 0.0
2018-Jun-30 09:29N 51°16' E 004°21'0 0.0
2018-Jun-30 08:59N 51°16' E 004°21'0 0.0
2018-Jun-30 08:26N 51°16' E 004°21'0 0.0
2018-Jun-30 07:56N 51°16' E 004°21'0 0.0
2018-Jun-30 07:23N 51°16' E 004°21'0 0.0
2018-Jun-30 06:59N 51°16' E 004°21'0 0.0
2018-Jun-30 06:29N 51°16' E 004°21'0 0.0
2018-Jun-30 05:59N 51°16' E 004°21'0 0.0
2018-Jun-30 05:29N 51°16' E 004°21'0 0.0
2018-Jun-30 04:50N 51°16' E 004°21'0 0.0
2018-Jun-30 04:29N 51°16' E 004°21'0 0.0
2018-Jun-30 03:59N 51°16' E 004°21'0 0.0
2018-Jun-30 03:23N 51°16' E 004°21'0 0.0
2018-Jun-30 02:59N 51°16' E 004°21'0 0.0
2018-Jun-30 02:29N 51°16' E 004°21'0 0.0
2018-Jun-30 01:59N 51°16' E 004°21'0 0.0
2018-Jun-30 01:23N 51°16' E 004°21'0 0.0
2018-Jun-30 00:59N 51°16' E 004°21'0 0.0
2018-Jun-30 00:29N 51°16' E 004°21'0 0.0
2018-Jun-29 23:56N 51°16' E 004°21'0 0.0
2018-Jun-29 23:29N 51°16' E 004°21'0 0.0
2018-Jun-29 22:44N 51°16' E 004°21'  
Track history (hours):
 
Tides and Currents Weather Stations Pressure Air Temp Water Temp Dewpoint Dewpoint Depression Visibility Wind Speed Wind Dir Waves Ship Positions

Northern Light

Last reported at 2018-Jul-09 22:43 UTC. Time now 2018-Jul-19 15:08 UTC.
Position N 26°27' W 015°33'.
Warning: this ship's position is 9 days out of date.

Length 183 m; draft 11.8 m.

Type: Tanker. MMSI: 538004293.

Date/timePositionNaut miles runAvg speedWind from/ knotsBaromVisibWave heightAir tempDewpointWater temp
2018-Jul-09 22:43N 26°27' W 015°33'3612.2
2018-Jul-09 19:47N 26°59' W 015°17'512.6
2018-Jul-09 19:23N 27°04' W 015°16'512.6
2018-Jul-09 18:58N 27°10' W 015°16'3712.5
2018-Jul-09 16:00N 27°47' W 015°14'612.2
2018-Jul-09 15:28N 27°53' W 015°14'612.4
2018-Jul-09 15:00N 27°59' W 015°15'612.5
2018-Jul-09 14:30N 28°04' W 015°18'4 8.0
2018-Jul-09 14:00N 28°08' W 015°20'5 9.8
2018-Jul-09 13:30N 28°12' W 015°17'612.5
2018-Jul-09 13:00N 28°16' W 015°12'713.2
2018-Jul-09 12:30N 28°21' W 015°07'713.3
2018-Jul-09 12:00N 28°28' W 015°05'713.4
2018-Jul-09 11:30N 28°34' W 015°03'713.1
2018-Jul-09 11:00N 28°40' W 015°01'713.0
2018-Jul-09 10:27N 28°47' W 014°58'612.6
2018-Jul-09 10:00N 28°53' W 014°56'612.4
2018-Jul-09 09:29N 28°59' W 014°55'612.7
2018-Jul-09 09:00N 29°05' W 014°53'612.5
2018-Jul-09 08:30N 29°11' W 014°51'611.6
2018-Jul-09 08:00N 29°16' W 014°49'1112.0
2018-Jul-09 07:04N 29°27' W 014°46'111.8
2018-Jul-09 07:00N 29°28' W 014°46'612.0
2018-Jul-09 06:30N 29°34' W 014°44'611.9
2018-Jul-09 06:00N 29°39' W 014°42'611.5
2018-Jul-09 05:30N 29°45' W 014°40'611.9
2018-Jul-09 04:59N 29°51' W 014°38'612.0
2018-Jul-09 04:30N 29°56' W 014°36'911.9
2018-Jul-09 03:44N 30°05' W 014°34'312.0
2018-Jul-09 03:30N 30°08' W 014°33'712.1
2018-Jul-09 02:57N 30°14' W 014°31'512.1
2018-Jul-09 02:30N 30°20' W 014°29'712.1
2018-Jul-09 01:56N 30°26' W 014°27'512.1
2018-Jul-09 01:30N 30°31' W 014°25'612.1
2018-Jul-09 00:59N 30°37' W 014°24'1411.9
2018-Jul-08 23:46N 30°51' W 014°19'512.1
2018-Jul-08 23:21N 30°56' W 014°17'412.2
2018-Jul-08 23:00N 31°00' W 014°16'612.3
2018-Jul-08 22:30N 31°06' W 014°14'712.2
2018-Jul-08 21:57N 31°13' W 014°12'2912.0
2018-Jul-08 19:30N 31°41' W 014°03'612.0
2018-Jul-08 19:00N 31°47' W 014°01'39012.3
2018-Jul-07 11:17N 38°03' W 011°56'  
2018-Jul-04 16:04N 49°43' W 003°40'112.7
2018-Jul-04 15:59N 49°44' W 003°39'912.6
2018-Jul-04 15:17N 49°48' W 003°27'312.4
2018-Jul-04 15:00N 49°50' W 003°22'712.2
2018-Jul-04 14:24N 49°54' W 003°12'511.5
2018-Jul-04 14:00N 49°56' W 003°06'611.3
2018-Jul-04 13:30N 49°59' W 002°58'610.9
2018-Jul-04 12:59N 50°01' W 002°50'510.6
2018-Jul-04 12:30N 50°02' W 002°43'510.3
2018-Jul-04 11:59N 50°03' W 002°35'5610.9
2018-Jul-04 06:54N 50°18' W 001°11'614.2
2018-Jul-04 06:30N 50°19' W 001°02'914.6
2018-Jul-04 05:54N 50°22' W 000°49'613.9
2018-Jul-04 05:28N 50°23' W 000°40'1213.4
2018-Jul-04 04:36N 50°26' W 000°22'112.8
2018-Jul-04 04:30N 50°27' W 000°20'912.6
2018-Jul-04 03:48N 50°29' W 000°07'1611.8
2018-Jul-04 02:27N 50°33' E 000°17'510.9
2018-Jul-04 02:00N 50°34' E 000°25'510.5
2018-Jul-04 01:30N 50°36' E 000°33'510.3
2018-Jul-04 01:00N 50°39' E 000°39'510.4
2018-Jul-04 00:30N 50°42' E 000°46'510.6
2018-Jul-04 00:00N 50°45' E 000°52'511.0
2018-Jul-03 23:30N 50°49' E 000°59'611.8
2018-Jul-03 23:00N 50°52' E 001°06'612.5
2018-Jul-03 22:30N 50°57' E 001°14'713.3
2018-Jul-03 22:00N 51°01' E 001°21'713.8
2018-Jul-03 21:30N 51°05' E 001°31'713.8
2018-Jul-03 21:01N 51°10' E 001°39'612.8
2018-Jul-03 20:30N 51°14' E 001°46'612.1
2018-Jul-03 20:00N 51°20' E 001°50'510.9
2018-Jul-03 19:30N 51°25' E 001°54'510.6
2018-Jul-03 19:01N 51°25' E 002°02'611.5
2018-Jul-03 18:31N 51°22' E 002°10'611.1
2018-Jul-03 18:01N 51°21' E 002°19'510.5
2018-Jul-03 17:31N 51°22' E 002°27'510.3
2018-Jul-03 17:01N 51°23' E 002°35'510.2
2018-Jul-03 16:31N 51°22' E 002°43'4 7.7
2018-Jul-03 16:00N 51°22' E 002°49'510.0
2018-Jul-03 15:30N 51°23' E 002°57'5 9.5
2018-Jul-03 15:01N 51°24' E 003°04'5 9.5
2018-Jul-03 14:30N 51°24' E 003°12'5 9.7
2018-Jul-03 14:01N 51°24' E 003°20'510.0
2018-Jul-03 13:31N 51°25' E 003°28'5 9.4
2018-Jul-03 13:01N 51°26' E 003°35'4 8.5
2018-Jul-03 12:31N 51°26' E 003°42'510.0
2018-Jul-03 12:01N 51°22' E 003°46'510.4
2018-Jul-03 11:31N 51°22' E 003°55'510.8
2018-Jul-03 11:01N 51°26' E 003°60'611.0
2018-Jul-03 10:30N 51°22' E 004°06'5 9.2
2018-Jul-03 10:01N 51°22' E 004°13'3 6.4
2018-Jul-03 09:30N 51°21' E 004°17'0 0.0
2018-Jul-03 09:00N 51°21' E 004°17'0 0.2
2018-Jul-03 08:30N 51°21' E 004°17'2 3.9
2018-Jul-03 08:00N 51°19' E 004°19'3 5.3
2018-Jul-03 07:30N 51°17' E 004°21'0 0.3
2018-Jul-03 06:56N 51°16' E 004°21'0 0.0
2018-Jul-03 06:29N 51°16' E 004°21'0 0.0
2018-Jul-03 05:59N 51°16' E 004°21'0 0.0
2018-Jul-03 05:29N 51°16' E 004°21'0 0.0
2018-Jul-03 04:59N 51°16' E 004°21'0 0.0
2018-Jul-03 04:29N 51°16' E 004°21'0 0.0
2018-Jul-03 03:59N 51°16' E 004°21'0 0.0
2018-Jul-03 03:26N 51°16' E 004°21'0 0.0
2018-Jul-03 02:59N 51°16' E 004°21'0 0.0
2018-Jul-03 02:29N 51°16' E 004°21'0 0.0
2018-Jul-03 01:59N 51°16' E 004°21'0 0.0
2018-Jul-03 01:29N 51°16' E 004°21'0 0.0
2018-Jul-03 00:59N 51°16' E 004°21'0 0.0
2018-Jul-03 00:29N 51°16' E 004°21'0 0.0
2018-Jul-02 23:59N 51°16' E 004°21'0 0.0
2018-Jul-02 23:29N 51°16' E 004°21'0 0.0
2018-Jul-02 22:59N 51°16' E 004°21'0 0.0
2018-Jul-02 22:29N 51°16' E 004°21'0 0.0
2018-Jul-02 21:50N 51°16' E 004°21'0 0.0
2018-Jul-02 21:29N 51°16' E 004°21'0 0.0
2018-Jul-02 20:50N 51°16' E 004°21'0 0.0
2018-Jul-02 20:29N 51°16' E 004°21'0 0.0
2018-Jul-02 19:59N 51°16' E 004°21'0 0.0
2018-Jul-02 19:29N 51°16' E 004°21'0 0.0
2018-Jul-02 18:59N 51°16' E 004°21'0 0.0
2018-Jul-02 18:29N 51°16' E 004°21'0 0.0
2018-Jul-02 17:56N 51°16' E 004°21'0 0.0
2018-Jul-02 17:26N 51°16' E 004°21'0 0.0
2018-Jul-02 16:56N 51°16' E 004°21'0 0.0
2018-Jul-02 16:26N 51°16' E 004°21'0 0.0
2018-Jul-02 15:59N 51°16' E 004°21'0 0.0
2018-Jul-02 15:29N 51°16' E 004°21'0 0.0
2018-Jul-02 14:59N 51°16' E 004°21'0 0.0
2018-Jul-02 14:26N 51°16' E 004°21'0 0.0
2018-Jul-02 13:59N 51°16' E 004°21'0 0.0
2018-Jul-02 13:26N 51°16' E 004°21'0 0.0
2018-Jul-02 12:59N 51°16' E 004°21'0 0.0
2018-Jul-02 12:29N 51°16' E 004°21'0 0.0
2018-Jul-02 11:56N 51°16' E 004°21'0 0.0
2018-Jul-02 11:26N 51°16' E 004°21'0 0.0
2018-Jul-02 10:56N 51°16' E 004°21'0 0.0
2018-Jul-02 10:20N 51°16' E 004°21'0 0.0
2018-Jul-02 09:50N 51°16' E 004°21'0 0.0
2018-Jul-02 09:23N 51°16' E 004°21'0 0.0
2018-Jul-02 08:59N 51°16' E 004°21'0 0.0
2018-Jul-02 08:26N 51°16' E 004°21'0 0.0
2018-Jul-02 07:56N 51°16' E 004°21'0 0.0
2018-Jul-02 07:29N 51°16' E 004°21'0 0.0
2018-Jul-02 06:59N 51°16' E 004°21'0 0.0
2018-Jul-02 06:29N 51°16' E 004°21'0 0.0
2018-Jul-02 05:59N 51°16' E 004°21'0 0.0
2018-Jul-02 05:29N 51°16' E 004°21'0 0.0
2018-Jul-02 04:59N 51°16' E 004°21'0 0.0
2018-Jul-02 04:29N 51°16' E 004°21'0 0.0
2018-Jul-02 03:56N 51°16' E 004°21'0 0.0
2018-Jul-02 03:26N 51°16' E 004°21'0 0.0
2018-Jul-02 02:59N 51°16' E 004°21'0 0.0
2018-Jul-02 02:26N 51°16' E 004°21'0 0.0
2018-Jul-02 01:59N 51°16' E 004°21'0 0.0
2018-Jul-02 01:26N 51°16' E 004°21'0 0.0
2018-Jul-02 00:59N 51°16' E 004°21'0 0.0
2018-Jul-02 00:26N 51°16' E 004°21'0 0.0
2018-Jul-01 23:59N 51°16' E 004°21'0 0.0
2018-Jul-01 23:29N 51°16' E 004°21'0 0.0
2018-Jul-01 22:59N 51°16' E 004°21'0 0.0
2018-Jul-01 22:29N 51°16' E 004°21'0 0.0
2018-Jul-01 21:59N 51°16' E 004°21'0 0.0
2018-Jul-01 21:29N 51°16' E 004°21'0 0.0
2018-Jul-01 20:59N 51°16' E 004°21'0 0.0
2018-Jul-01 20:23N 51°16' E 004°21'0 0.0
2018-Jul-01 19:59N 51°16' E 004°21'0 0.0
2018-Jul-01 19:29N 51°16' E 004°21'0 0.0
2018-Jul-01 18:56N 51°16' E 004°21'0 0.0
2018-Jul-01 18:29N 51°16' E 004°21'0 0.0
2018-Jul-01 17:56N 51°16' E 004°21'0 0.0
2018-Jul-01 17:29N 51°16' E 004°21'0 0.0
2018-Jul-01 16:59N 51°16' E 004°21'0 0.0
2018-Jul-01 16:29N 51°16' E 004°21'0 0.0
2018-Jul-01 15:59N 51°16' E 004°21'0 0.0
2018-Jul-01 15:29N 51°16' E 004°21'0 0.0
2018-Jul-01 14:56N 51°16' E 004°21'0 0.0
2018-Jul-01 14:26N 51°16' E 004°21'0 0.0
2018-Jul-01 13:59N 51°16' E 004°21'0 0.0
2018-Jul-01 13:23N 51°16' E 004°21'0 0.0
2018-Jul-01 12:59N 51°16' E 004°21'0 0.0
2018-Jul-01 12:29N 51°16' E 004°21'0 0.0
2018-Jul-01 11:50N 51°16' E 004°21'0 0.0
2018-Jul-01 11:29N 51°16' E 004°21'0 0.0
2018-Jul-01 10:56N 51°16' E 004°21'0 0.0
2018-Jul-01 10:23N 51°16' E 004°21'0 0.0
2018-Jul-01 09:50N 51°16' E 004°21'0 0.0
2018-Jul-01 09:29N 51°16' E 004°21'0 0.0
2018-Jul-01 08:56N 51°16' E 004°21'0 0.0
2018-Jul-01 08:23N 51°16' E 004°21'0 0.0
2018-Jul-01 07:59N 51°16' E 004°21'0 0.0
2018-Jul-01 07:29N 51°16' E 004°21'0 0.0
2018-Jul-01 06:56N 51°16' E 004°21'0 0.0
2018-Jul-01 06:29N 51°16' E 004°21'0 0.0
2018-Jul-01 05:56N 51°16' E 004°21'0 0.0
2018-Jul-01 05:29N 51°16' E 004°21'0 0.0
2018-Jul-01 04:56N 51°16' E 004°21'0 0.0
2018-Jul-01 04:26N 51°16' E 004°21'0 0.0
2018-Jul-01 03:59N 51°16' E 004°21'0 0.0
2018-Jul-01 03:26N 51°16' E 004°21'0 0.0
2018-Jul-01 02:59N 51°16' E 004°21'0 0.0
2018-Jul-01 02:23N 51°16' E 004°21'0 0.0
2018-Jul-01 01:59N 51°16' E 004°21'0 0.0
2018-Jul-01 01:26N 51°16' E 004°21'0 0.0
2018-Jul-01 00:59N 51°16' E 004°21'0 0.0
2018-Jul-01 00:26N 51°16' E 004°21'0 0.0
2018-Jun-30 23:59N 51°16' E 004°21'0 0.0
2018-Jun-30 23:29N 51°16' E 004°21'0 0.0
2018-Jun-30 22:59N 51°16' E 004°21'0 0.0
2018-Jun-30 22:23N 51°16' E 004°21'0 0.0
2018-Jun-30 21:56N 51°16' E 004°21'0 0.0
2018-Jun-30 21:29N 51°16' E 004°21'0 0.0
2018-Jun-30 20:59N 51°16' E 004°21'0 0.0
2018-Jun-30 20:26N 51°16' E 004°21'0 0.0
2018-Jun-30 19:59N 51°16' E 004°21'0 0.0
2018-Jun-30 19:29N 51°16' E 004°21'0 0.0
2018-Jun-30 18:59N 51°16' E 004°21'0 0.0
2018-Jun-30 18:29N 51°16' E 004°21'0 0.0
2018-Jun-30 17:59N 51°16' E 004°21'0 0.0
2018-Jun-30 17:29N 51°16' E 004°21'0 0.0
2018-Jun-30 16:59N 51°16' E 004°21'0 0.0
2018-Jun-30 16:29N 51°16' E 004°21'0 0.0
2018-Jun-30 15:59N 51°16' E 004°21'0 0.0
2018-Jun-30 15:26N 51°16' E 004°21'0 0.0
2018-Jun-30 14:59N 51°16' E 004°21'0 0.0
2018-Jun-30 14:29N 51°16' E 004°21'0 0.0
2018-Jun-30 13:56N 51°16' E 004°21'0 0.0
2018-Jun-30 13:29N 51°16' E 004°21'0 0.0
2018-Jun-30 12:59N 51°16' E 004°21'0 0.0
2018-Jun-30 12:29N 51°16' E 004°21'0 0.0
2018-Jun-30 11:59N 51°16' E 004°21'0 0.0
2018-Jun-30 11:29N 51°16' E 004°21'0 0.0
2018-Jun-30 10:59N 51°16' E 004°21'0 0.0
2018-Jun-30 10:29N 51°16' E 004°21'0 0.0
2018-Jun-30 09:56N 51°16' E 004°21'0 0.0
2018-Jun-30 09:29N 51°16' E 004°21'0 0.0
2018-Jun-30 08:59N 51°16' E 004°21'0 0.0
2018-Jun-30 08:26N 51°16' E 004°21'0 0.0
2018-Jun-30 07:56N 51°16' E 004°21'0 0.0
2018-Jun-30 07:23N 51°16' E 004°21'0 0.0
2018-Jun-30 06:59N 51°16' E 004°21'0 0.0
2018-Jun-30 06:29N 51°16' E 004°21'0 0.0
2018-Jun-30 05:59N 51°16' E 004°21'0 0.0
2018-Jun-30 05:29N 51°16' E 004°21'0 0.0
2018-Jun-30 04:50N 51°16' E 004°21'0 0.0
2018-Jun-30 04:29N 51°16' E 004°21'0 0.0
2018-Jun-30 03:59N 51°16' E 004°21'0 0.0
2018-Jun-30 03:23N 51°16' E 004°21'0 0.0
2018-Jun-30 02:59N 51°16' E 004°21'0 0.0
2018-Jun-30 02:29N 51°16' E 004°21'0 0.0
2018-Jun-30 01:59N 51°16' E 004°21'0 0.0
2018-Jun-30 01:23N 51°16' E 004°21'0 0.0
2018-Jun-30 00:59N 51°16' E 004°21'0 0.0
2018-Jun-30 00:29N 51°16' E 004°21'0 0.0
2018-Jun-29 23:56N 51°16' E 004°21'0 0.0
2018-Jun-29 23:29N 51°16' E 004°21'0 0.0
2018-Jun-29 22:44N 51°16' E 004°21'  

Dump ship's entire track history